sensor_id;sensor_type;location;lat;lon;timestamp;P1;durP1;ratioP1;P2;durP2;ratioP2
14486;SDS011;7329;50.866;4.366;2022-11-20T00:01:53;14.65;;;11.73;;
14486;SDS011;7329;50.866;4.366;2022-11-20T00:03:56;17.52;;;13.35;;
14486;SDS011;7329;50.866;4.366;2022-11-20T00:05:59;14.95;;;12.65;;
14486;SDS011;7329;50.866;4.366;2022-11-20T00:08:02;14.52;;;11.82;;
14486;SDS011;7329;50.866;4.366;2022-11-20T00:10:05;14.45;;;12.85;;
14486;SDS011;7329;50.866;4.366;2022-11-20T00:12:07;14.75;;;12.43;;
14486;SDS011;7329;50.866;4.366;2022-11-20T00:14:10;14.70;;;12.77;;
14486;SDS011;7329;50.866;4.366;2022-11-20T00:16:15;14.88;;;12.65;;
14486;SDS011;7329;50.866;4.366;2022-11-20T00:18:18;14.70;;;12.02;;
14486;SDS011;7329;50.866;4.366;2022-11-20T00:20:21;15.40;;;11.75;;
14486;SDS011;7329;50.866;4.366;2022-11-20T00:22:23;14.05;;;11.32;;
14486;SDS011;7329;50.866;4.366;2022-11-20T00:24:25;15.55;;;12.10;;
14486;SDS011;7329;50.866;4.366;2022-11-20T00:26:28;12.90;;;11.35;;
14486;SDS011;7329;50.866;4.366;2022-11-20T00:28:30;12.65;;;11.35;;
14486;SDS011;7329;50.866;4.366;2022-11-20T00:30:33;15.10;;;12.00;;
14486;SDS011;7329;50.866;4.366;2022-11-20T00:32:36;12.80;;;11.43;;
14486;SDS011;7329;50.866;4.366;2022-11-20T00:34:39;14.40;;;11.73;;
14486;SDS011;7329;50.866;4.366;2022-11-20T00:36:41;14.15;;;11.88;;
14486;SDS011;7329;50.866;4.366;2022-11-20T00:38:43;12.40;;;11.00;;
14486;SDS011;7329;50.866;4.366;2022-11-20T00:40:49;14.25;;;11.85;;
14486;SDS011;7329;50.866;4.366;2022-11-20T00:42:57;13.88;;;11.13;;
14486;SDS011;7329;50.866;4.366;2022-11-20T00:44:59;15.00;;;11.93;;
14486;SDS011;7329;50.866;4.366;2022-11-20T00:47:02;14.10;;;10.73;;
14486;SDS011;7329;50.866;4.366;2022-11-20T00:49:05;13.05;;;11.25;;
14486;SDS011;7329;50.866;4.366;2022-11-20T00:51:08;13.85;;;10.98;;
14486;SDS011;7329;50.866;4.366;2022-11-20T00:53:12;13.35;;;11.07;;
14486;SDS011;7329;50.866;4.366;2022-11-20T00:55:15;14.00;;;11.20;;
14486;SDS011;7329;50.866;4.366;2022-11-20T00:57:17;13.88;;;11.63;;
14486;SDS011;7329;50.866;4.366;2022-11-20T00:59:20;13.63;;;10.70;;
14486;SDS011;7329;50.866;4.366;2022-11-20T01:01:23;13.48;;;11.30;;
14486;SDS011;7329;50.866;4.366;2022-11-20T01:03:26;12.90;;;10.90;;
14486;SDS011;7329;50.866;4.366;2022-11-20T01:05:33;15.25;;;11.52;;
14486;SDS011;7329;50.866;4.366;2022-11-20T01:07:36;13.93;;;11.98;;
14486;SDS011;7329;50.866;4.366;2022-11-20T01:09:38;12.10;;;10.57;;
14486;SDS011;7329;50.866;4.366;2022-11-20T01:11:41;13.35;;;10.98;;
14486;SDS011;7329;50.866;4.366;2022-11-20T01:13:45;12.90;;;10.90;;
14486;SDS011;7329;50.866;4.366;2022-11-20T01:15:49;13.27;;;10.70;;
14486;SDS011;7329;50.866;4.366;2022-11-20T01:17:51;13.60;;;10.85;;
14486;SDS011;7329;50.866;4.366;2022-11-20T01:19:53;14.20;;;11.20;;
14486;SDS011;7329;50.866;4.366;2022-11-20T01:21:57;12.68;;;10.57;;
14486;SDS011;7329;50.866;4.366;2022-11-20T01:23:59;12.60;;;10.75;;
14486;SDS011;7329;50.866;4.366;2022-11-20T01:26:02;13.68;;;10.73;;
14486;SDS011;7329;50.866;4.366;2022-11-20T01:28:06;14.10;;;11.20;;
14486;SDS011;7329;50.866;4.366;2022-11-20T01:30:08;12.82;;;10.82;;
14486;SDS011;7329;50.866;4.366;2022-11-20T01:32:11;12.77;;;10.57;;
14486;SDS011;7329;50.866;4.366;2022-11-20T01:34:14;12.27;;;10.32;;
14486;SDS011;7329;50.866;4.366;2022-11-20T01:36:19;11.98;;;10.65;;
14486;SDS011;7329;50.866;4.366;2022-11-20T01:38:24;12.57;;;10.52;;
14486;SDS011;7329;50.866;4.366;2022-11-20T01:40:26;12.85;;;10.02;;
14486;SDS011;7329;50.866;4.366;2022-11-20T01:42:29;11.73;;;10.52;;
14486;SDS011;7329;50.866;4.366;2022-11-20T01:44:50;13.35;;;9.98;;
14486;SDS011;7329;50.866;4.366;2022-11-20T01:46:55;12.45;;;10.15;;
14486;SDS011;7329;50.866;4.366;2022-11-20T01:49:01;12.00;;;10.80;;
14486;SDS011;7329;50.866;4.366;2022-11-20T01:51:06;12.07;;;10.18;;
14486;SDS011;7329;50.866;4.366;2022-11-20T01:53:15;11.98;;;10.48;;
14486;SDS011;7329;50.866;4.366;2022-11-20T01:55:22;11.95;;;10.45;;
14486;SDS011;7329;50.866;4.366;2022-11-20T01:57:27;12.70;;;10.20;;
14486;SDS011;7329;50.866;4.366;2022-11-20T01:59:32;13.68;;;10.73;;
14486;SDS011;7329;50.866;4.366;2022-11-20T02:01:36;13.05;;;11.13;;
14486;SDS011;7329;50.866;4.366;2022-11-20T02:03:39;13.27;;;10.98;;
14486;SDS011;7329;50.866;4.366;2022-11-20T02:05:43;13.40;;;10.75;;
14486;SDS011;7329;50.866;4.366;2022-11-20T02:07:50;14.00;;;11.05;;
14486;SDS011;7329;50.866;4.366;2022-11-20T02:09:55;11.98;;;10.20;;
14486;SDS011;7329;50.866;4.366;2022-11-20T02:11:59;14.05;;;10.45;;
14486;SDS011;7329;50.866;4.366;2022-11-20T02:14:02;12.27;;;10.70;;
14486;SDS011;7329;50.866;4.366;2022-11-20T02:16:04;12.10;;;10.23;;
14486;SDS011;7329;50.866;4.366;2022-11-20T02:18:13;11.50;;;10.02;;
14486;SDS011;7329;50.866;4.366;2022-11-20T02:20:16;12.60;;;10.23;;
14486;SDS011;7329;50.866;4.366;2022-11-20T02:22:19;13.70;;;10.63;;
14486;SDS011;7329;50.866;4.366;2022-11-20T02:24:27;11.75;;;10.52;;
14486;SDS011;7329;50.866;4.366;2022-11-20T02:26:31;12.55;;;10.95;;
14486;SDS011;7329;50.866;4.366;2022-11-20T02:28:36;11.63;;;9.85;;
14486;SDS011;7329;50.866;4.366;2022-11-20T02:30:38;11.35;;;10.13;;
14486;SDS011;7329;50.866;4.366;2022-11-20T02:32:41;12.45;;;10.63;;
14486;SDS011;7329;50.866;4.366;2022-11-20T02:34:43;11.90;;;10.27;;
14486;SDS011;7329;50.866;4.366;2022-11-20T02:36:46;11.48;;;10.27;;
14486;SDS011;7329;50.866;4.366;2022-11-20T02:38:50;12.25;;;10.40;;
14486;SDS011;7329;50.866;4.366;2022-11-20T02:40:53;14.13;;;10.40;;
14486;SDS011;7329;50.866;4.366;2022-11-20T02:42:56;11.40;;;10.18;;
14486;SDS011;7329;50.866;4.366;2022-11-20T02:44:59;10.85;;;9.75;;
14486;SDS011;7329;50.866;4.366;2022-11-20T02:47:01;12.05;;;9.98;;
14486;SDS011;7329;50.866;4.366;2022-11-20T02:49:04;11.57;;;10.23;;
14486;SDS011;7329;50.866;4.366;2022-11-20T02:51:06;12.95;;;10.18;;
14486;SDS011;7329;50.866;4.366;2022-11-20T02:53:09;12.38;;;9.85;;
14486;SDS011;7329;50.866;4.366;2022-11-20T02:55:11;11.40;;;10.20;;
14486;SDS011;7329;50.866;4.366;2022-11-20T02:57:15;12.55;;;10.45;;
14486;SDS011;7329;50.866;4.366;2022-11-20T02:59:18;11.95;;;10.23;;
14486;SDS011;7329;50.866;4.366;2022-11-20T03:01:20;11.63;;;10.15;;
14486;SDS011;7329;50.866;4.366;2022-11-20T03:03:22;11.38;;;10.18;;
14486;SDS011;7329;50.866;4.366;2022-11-20T03:05:25;11.73;;;9.88;;
14486;SDS011;7329;50.866;4.366;2022-11-20T03:07:27;12.07;;;9.90;;
14486;SDS011;7329;50.866;4.366;2022-11-20T03:09:29;14.35;;;10.48;;
14486;SDS011;7329;50.866;4.366;2022-11-20T03:11:32;12.15;;;10.82;;
14486;SDS011;7329;50.866;4.366;2022-11-20T03:13:35;13.18;;;10.40;;
14486;SDS011;7329;50.866;4.366;2022-11-20T03:15:38;12.05;;;9.98;;
14486;SDS011;7329;50.866;4.366;2022-11-20T03:17:40;12.63;;;10.50;;
14486;SDS011;7329;50.866;4.366;2022-11-20T03:19:42;11.15;;;9.65;;
14486;SDS011;7329;50.866;4.366;2022-11-20T03:21:45;10.70;;;9.27;;
14486;SDS011;7329;50.866;4.366;2022-11-20T03:23:47;11.98;;;10.00;;
14486;SDS011;7329;50.866;4.366;2022-11-20T03:25:50;12.02;;;10.10;;
14486;SDS011;7329;50.866;4.366;2022-11-20T03:27:52;11.80;;;10.48;;
14486;SDS011;7329;50.866;4.366;2022-11-20T03:29:57;10.68;;;9.55;;
14486;SDS011;7329;50.866;4.366;2022-11-20T03:31:59;11.10;;;9.95;;
14486;SDS011;7329;50.866;4.366;2022-11-20T03:34:02;12.15;;;10.05;;
14486;SDS011;7329;50.866;4.366;2022-11-20T03:36:05;11.90;;;10.25;;
14486;SDS011;7329;50.866;4.366;2022-11-20T03:38:09;11.35;;;9.82;;
14486;SDS011;7329;50.866;4.366;2022-11-20T03:40:12;11.32;;;9.55;;
14486;SDS011;7329;50.866;4.366;2022-11-20T03:42:14;10.90;;;9.80;;
14486;SDS011;7329;50.866;4.366;2022-11-20T03:44:30;12.10;;;9.98;;
14486;SDS011;7329;50.866;4.366;2022-11-20T03:46:34;11.43;;;9.43;;
14486;SDS011;7329;50.866;4.366;2022-11-20T03:48:37;12.27;;;9.50;;
14486;SDS011;7329;50.866;4.366;2022-11-20T03:50:39;10.95;;;9.82;;
14486;SDS011;7329;50.866;4.366;2022-11-20T03:52:41;11.32;;;9.70;;
14486;SDS011;7329;50.866;4.366;2022-11-20T03:54:44;12.18;;;9.90;;
14486;SDS011;7329;50.866;4.366;2022-11-20T03:56:46;10.25;;;9.05;;
14486;SDS011;7329;50.866;4.366;2022-11-20T03:58:48;12.38;;;9.90;;
14486;SDS011;7329;50.866;4.366;2022-11-20T04:00:51;11.45;;;10.10;;
14486;SDS011;7329;50.866;4.366;2022-11-20T04:02:57;13.25;;;10.13;;
14486;SDS011;7329;50.866;4.366;2022-11-20T04:05:00;11.95;;;9.82;;
14486;SDS011;7329;50.866;4.366;2022-11-20T04:07:02;11.15;;;9.63;;
14486;SDS011;7329;50.866;4.366;2022-11-20T04:09:05;10.80;;;9.68;;
14486;SDS011;7329;50.866;4.366;2022-11-20T04:11:09;10.25;;;9.07;;
14486;SDS011;7329;50.866;4.366;2022-11-20T04:13:12;11.55;;;9.40;;
14486;SDS011;7329;50.866;4.366;2022-11-20T04:15:14;11.27;;;9.73;;
14486;SDS011;7329;50.866;4.366;2022-11-20T04:17:17;11.15;;;9.52;;
14486;SDS011;7329;50.866;4.366;2022-11-20T04:19:20;10.32;;;9.20;;
14486;SDS011;7329;50.866;4.366;2022-11-20T04:21:23;11.63;;;9.50;;
14486;SDS011;7329;50.866;4.366;2022-11-20T04:23:26;10.73;;;8.80;;
14486;SDS011;7329;50.866;4.366;2022-11-20T04:25:29;12.85;;;9.95;;
14486;SDS011;7329;50.866;4.366;2022-11-20T04:27:31;11.38;;;9.48;;
14486;SDS011;7329;50.866;4.366;2022-11-20T04:29:33;10.25;;;9.25;;
14486;SDS011;7329;50.866;4.366;2022-11-20T04:31:36;10.95;;;9.05;;
14486;SDS011;7329;50.866;4.366;2022-11-20T04:33:38;10.88;;;9.20;;
14486;SDS011;7329;50.866;4.366;2022-11-20T04:35:42;9.98;;;8.73;;
14486;SDS011;7329;50.866;4.366;2022-11-20T04:37:50;11.90;;;9.43;;
14486;SDS011;7329;50.866;4.366;2022-11-20T04:39:53;10.98;;;9.88;;
14486;SDS011;7329;50.866;4.366;2022-11-20T04:41:55;11.43;;;9.98;;
14486;SDS011;7329;50.866;4.366;2022-11-20T04:44:11;10.52;;;9.25;;
14486;SDS011;7329;50.866;4.366;2022-11-20T04:46:14;10.48;;;9.38;;
14486;SDS011;7329;50.866;4.366;2022-11-20T04:48:17;12.75;;;10.30;;
14486;SDS011;7329;50.866;4.366;2022-11-20T04:50:19;11.43;;;9.95;;
14486;SDS011;7329;50.866;4.366;2022-11-20T04:52:23;13.18;;;9.48;;
14486;SDS011;7329;50.866;4.366;2022-11-20T04:54:25;10.60;;;9.48;;
14486;SDS011;7329;50.866;4.366;2022-11-20T04:56:27;10.98;;;9.70;;
14486;SDS011;7329;50.866;4.366;2022-11-20T04:58:30;11.77;;;9.85;;
14486;SDS011;7329;50.866;4.366;2022-11-20T05:00:33;11.55;;;9.45;;
14486;SDS011;7329;50.866;4.366;2022-11-20T05:02:35;12.32;;;9.95;;
14486;SDS011;7329;50.866;4.366;2022-11-20T05:04:37;12.25;;;10.40;;
14486;SDS011;7329;50.866;4.366;2022-11-20T05:06:40;11.35;;;10.07;;
14486;SDS011;7329;50.866;4.366;2022-11-20T05:08:43;11.52;;;9.40;;
14486;SDS011;7329;50.866;4.366;2022-11-20T05:10:46;11.40;;;9.65;;
14486;SDS011;7329;50.866;4.366;2022-11-20T05:12:48;12.13;;;10.05;;
14486;SDS011;7329;50.866;4.366;2022-11-20T05:14:50;13.10;;;9.75;;
14486;SDS011;7329;50.866;4.366;2022-11-20T05:16:53;11.02;;;9.90;;
14486;SDS011;7329;50.866;4.366;2022-11-20T05:18:55;12.40;;;10.23;;
14486;SDS011;7329;50.866;4.366;2022-11-20T05:20:58;12.52;;;10.48;;
14486;SDS011;7329;50.866;4.366;2022-11-20T05:23:00;12.68;;;10.20;;
14486;SDS011;7329;50.866;4.366;2022-11-20T05:25:05;11.25;;;10.05;;
14486;SDS011;7329;50.866;4.366;2022-11-20T05:27:07;12.80;;;10.05;;
14486;SDS011;7329;50.866;4.366;2022-11-20T05:29:10;12.50;;;10.60;;
14486;SDS011;7329;50.866;4.366;2022-11-20T05:31:14;10.63;;;9.25;;
14486;SDS011;7329;50.866;4.366;2022-11-20T05:33:18;12.25;;;10.40;;
14486;SDS011;7329;50.866;4.366;2022-11-20T05:35:20;12.77;;;10.07;;
14486;SDS011;7329;50.866;4.366;2022-11-20T05:37:23;11.13;;;9.93;;
14486;SDS011;7329;50.866;4.366;2022-11-20T05:39:25;12.43;;;10.45;;
14486;SDS011;7329;50.866;4.366;2022-11-20T05:41:29;11.65;;;10.38;;
14486;SDS011;7329;50.866;4.366;2022-11-20T05:43:31;12.77;;;10.13;;
14486;SDS011;7329;50.866;4.366;2022-11-20T05:45:35;12.80;;;10.85;;
14486;SDS011;7329;50.866;4.366;2022-11-20T05:47:37;12.05;;;9.85;;
14486;SDS011;7329;50.866;4.366;2022-11-20T05:49:40;12.23;;;10.45;;
14486;SDS011;7329;50.866;4.366;2022-11-20T05:51:42;12.77;;;10.57;;
14486;SDS011;7329;50.866;4.366;2022-11-20T05:53:44;12.57;;;10.73;;
14486;SDS011;7329;50.866;4.366;2022-11-20T05:55:55;11.90;;;10.15;;
14486;SDS011;7329;50.866;4.366;2022-11-20T05:58:00;13.23;;;10.40;;
14486;SDS011;7329;50.866;4.366;2022-11-20T06:00:03;11.88;;;10.10;;
14486;SDS011;7329;50.866;4.366;2022-11-20T06:02:06;11.63;;;10.20;;
14486;SDS011;7329;50.866;4.366;2022-11-20T06:04:08;11.00;;;9.88;;
14486;SDS011;7329;50.866;4.366;2022-11-20T06:06:11;13.82;;;10.93;;
14486;SDS011;7329;50.866;4.366;2022-11-20T06:08:13;12.50;;;10.38;;
14486;SDS011;7329;50.866;4.366;2022-11-20T06:10:16;11.40;;;10.20;;
14486;SDS011;7329;50.866;4.366;2022-11-20T06:12:18;12.13;;;10.68;;
14486;SDS011;7329;50.866;4.366;2022-11-20T06:14:22;11.95;;;10.65;;
14486;SDS011;7329;50.866;4.366;2022-11-20T06:16:24;12.98;;;10.45;;
14486;SDS011;7329;50.866;4.366;2022-11-20T06:18:27;12.98;;;10.65;;
14486;SDS011;7329;50.866;4.366;2022-11-20T06:20:30;14.57;;;11.38;;
14486;SDS011;7329;50.866;4.366;2022-11-20T06:22:32;12.20;;;10.70;;
14486;SDS011;7329;50.866;4.366;2022-11-20T06:24:34;13.18;;;10.38;;
14486;SDS011;7329;50.866;4.366;2022-11-20T06:26:37;13.35;;;11.13;;
14486;SDS011;7329;50.866;4.366;2022-11-20T06:28:39;11.60;;;10.23;;
14486;SDS011;7329;50.866;4.366;2022-11-20T06:30:45;13.77;;;10.30;;
14486;SDS011;7329;50.866;4.366;2022-11-20T06:32:48;12.77;;;11.02;;
14486;SDS011;7329;50.866;4.366;2022-11-20T06:34:50;13.15;;;11.48;;
14486;SDS011;7329;50.866;4.366;2022-11-20T06:36:52;12.43;;;10.38;;
14486;SDS011;7329;50.866;4.366;2022-11-20T06:38:55;12.20;;;10.70;;
14486;SDS011;7329;50.866;4.366;2022-11-20T06:40:57;15.60;;;11.98;;
14486;SDS011;7329;50.866;4.366;2022-11-20T06:42:59;13.52;;;11.30;;
14486;SDS011;7329;50.866;4.366;2022-11-20T06:45:02;13.90;;;10.90;;
14486;SDS011;7329;50.866;4.366;2022-11-20T06:47:06;14.80;;;12.05;;
14486;SDS011;7329;50.866;4.366;2022-11-20T06:49:08;13.88;;;11.07;;
14486;SDS011;7329;50.866;4.366;2022-11-20T06:51:10;13.98;;;11.05;;
14486;SDS011;7329;50.866;4.366;2022-11-20T06:53:13;15.18;;;11.90;;
14486;SDS011;7329;50.866;4.366;2022-11-20T06:55:15;14.13;;;11.35;;
14486;SDS011;7329;50.866;4.366;2022-11-20T06:57:18;13.57;;;11.35;;
14486;SDS011;7329;50.866;4.366;2022-11-20T06:59:20;13.68;;;11.13;;
14486;SDS011;7329;50.866;4.366;2022-11-20T07:01:22;15.07;;;11.43;;
14486;SDS011;7329;50.866;4.366;2022-11-20T07:03:26;14.15;;;11.93;;
14486;SDS011;7329;50.866;4.366;2022-11-20T07:05:29;15.32;;;11.50;;
14486;SDS011;7329;50.866;4.366;2022-11-20T07:07:31;15.43;;;12.05;;
14486;SDS011;7329;50.866;4.366;2022-11-20T07:09:33;13.73;;;11.45;;
14486;SDS011;7329;50.866;4.366;2022-11-20T07:11:35;14.32;;;11.45;;
14486;SDS011;7329;50.866;4.366;2022-11-20T07:13:38;13.60;;;11.35;;
14486;SDS011;7329;50.866;4.366;2022-11-20T07:15:40;14.40;;;11.43;;
14486;SDS011;7329;50.866;4.366;2022-11-20T07:17:42;15.35;;;12.27;;
14486;SDS011;7329;50.866;4.366;2022-11-20T07:19:46;12.93;;;11.55;;
14486;SDS011;7329;50.866;4.366;2022-11-20T07:21:49;14.27;;;11.70;;
14486;SDS011;7329;50.866;4.366;2022-11-20T07:23:51;15.27;;;11.52;;
14486;SDS011;7329;50.866;4.366;2022-11-20T07:25:53;13.82;;;10.85;;
14486;SDS011;7329;50.866;4.366;2022-11-20T07:27:56;13.00;;;11.27;;
14486;SDS011;7329;50.866;4.366;2022-11-20T07:29:59;12.55;;;11.25;;
14486;SDS011;7329;50.866;4.366;2022-11-20T07:32:01;12.38;;;11.05;;
14486;SDS011;7329;50.866;4.366;2022-11-20T07:34:03;14.50;;;11.60;;
14486;SDS011;7329;50.866;4.366;2022-11-20T07:36:07;13.35;;;10.80;;
14486;SDS011;7329;50.866;4.366;2022-11-20T07:38:10;13.55;;;10.85;;
14486;SDS011;7329;50.866;4.366;2022-11-20T07:40:12;13.93;;;11.07;;
14486;SDS011;7329;50.866;4.366;2022-11-20T07:42:15;13.02;;;11.25;;
14486;SDS011;7329;50.866;4.366;2022-11-20T07:44:17;15.15;;;11.88;;
14486;SDS011;7329;50.866;4.366;2022-11-20T07:46:19;14.63;;;11.60;;
14486;SDS011;7329;50.866;4.366;2022-11-20T07:48:22;12.63;;;10.82;;
14486;SDS011;7329;50.866;4.366;2022-11-20T07:50:24;14.52;;;12.02;;
14486;SDS011;7329;50.866;4.366;2022-11-20T07:52:27;14.15;;;12.02;;
14486;SDS011;7329;50.866;4.366;2022-11-20T07:54:32;16.02;;;11.95;;
14486;SDS011;7329;50.866;4.366;2022-11-20T07:56:34;12.82;;;10.80;;
14486;SDS011;7329;50.866;4.366;2022-11-20T07:58:37;12.68;;;10.77;;
14486;SDS011;7329;50.866;4.366;2022-11-20T08:00:39;14.57;;;12.10;;
14486;SDS011;7329;50.866;4.366;2022-11-20T08:02:41;13.60;;;11.45;;
14486;SDS011;7329;50.866;4.366;2022-11-20T08:04:44;14.00;;;11.93;;
14486;SDS011;7329;50.866;4.366;2022-11-20T08:06:46;13.90;;;11.25;;
14486;SDS011;7329;50.866;4.366;2022-11-20T08:08:50;13.30;;;10.98;;
14486;SDS011;7329;50.866;4.366;2022-11-20T08:10:52;12.43;;;10.68;;
14486;SDS011;7329;50.866;4.366;2022-11-20T08:13:14;14.00;;;10.90;;
14486;SDS011;7329;50.866;4.366;2022-11-20T08:15:34;13.90;;;11.60;;
14486;SDS011;7329;50.866;4.366;2022-11-20T08:17:38;13.07;;;11.25;;
14486;SDS011;7329;50.866;4.366;2022-11-20T08:19:40;13.52;;;11.30;;
14486;SDS011;7329;50.866;4.366;2022-11-20T08:21:42;15.50;;;11.35;;
14486;SDS011;7329;50.866;4.366;2022-11-20T08:23:45;16.13;;;12.07;;
14486;SDS011;7329;50.866;4.366;2022-11-20T08:25:50;12.60;;;10.52;;
14486;SDS011;7329;50.866;4.366;2022-11-20T08:27:52;14.90;;;11.40;;
14486;SDS011;7329;50.866;4.366;2022-11-20T08:29:54;14.77;;;11.57;;
14486;SDS011;7329;50.866;4.366;2022-11-20T08:31:56;13.65;;;11.40;;
14486;SDS011;7329;50.866;4.366;2022-11-20T08:33:59;13.60;;;10.57;;
14486;SDS011;7329;50.866;4.366;2022-11-20T08:36:02;12.48;;;11.00;;
14486;SDS011;7329;50.866;4.366;2022-11-20T08:38:05;13.95;;;10.60;;
14486;SDS011;7329;50.866;4.366;2022-11-20T08:40:09;12.88;;;11.00;;
14486;SDS011;7329;50.866;4.366;2022-11-20T08:42:14;13.80;;;10.82;;
14486;SDS011;7329;50.866;4.366;2022-11-20T08:44:16;14.60;;;11.00;;
14486;SDS011;7329;50.866;4.366;2022-11-20T08:46:18;12.23;;;10.48;;
14486;SDS011;7329;50.866;4.366;2022-11-20T08:48:21;15.05;;;10.90;;
14486;SDS011;7329;50.866;4.366;2022-11-20T08:50:23;13.07;;;10.63;;
14486;SDS011;7329;50.866;4.366;2022-11-20T08:52:25;12.45;;;10.50;;
14486;SDS011;7329;50.866;4.366;2022-11-20T08:54:28;12.57;;;10.57;;
14486;SDS011;7329;50.866;4.366;2022-11-20T08:56:31;13.52;;;10.77;;
14486;SDS011;7329;50.866;4.366;2022-11-20T08:58:35;14.30;;;10.68;;
14486;SDS011;7329;50.866;4.366;2022-11-20T09:00:37;13.68;;;10.82;;
14486;SDS011;7329;50.866;4.366;2022-11-20T09:02:39;13.18;;;10.68;;
14486;SDS011;7329;50.866;4.366;2022-11-20T09:04:42;13.55;;;11.55;;
14486;SDS011;7329;50.866;4.366;2022-11-20T09:06:44;14.43;;;11.60;;
14486;SDS011;7329;50.866;4.366;2022-11-20T09:08:46;14.15;;;11.15;;
14486;SDS011;7329;50.866;4.366;2022-11-20T09:10:53;15.10;;;11.52;;
14486;SDS011;7329;50.866;4.366;2022-11-20T09:12:55;14.55;;;10.50;;
14486;SDS011;7329;50.866;4.366;2022-11-20T09:14:59;13.98;;;10.93;;
14486;SDS011;7329;50.866;4.366;2022-11-20T09:17:01;15.25;;;10.73;;
14486;SDS011;7329;50.866;4.366;2022-11-20T09:19:04;13.05;;;10.52;;
14486;SDS011;7329;50.866;4.366;2022-11-20T09:21:08;11.93;;;9.90;;
14486;SDS011;7329;50.866;4.366;2022-11-20T09:23:12;13.20;;;10.77;;
14486;SDS011;7329;50.866;4.366;2022-11-20T09:25:14;12.50;;;10.30;;
14486;SDS011;7329;50.866;4.366;2022-11-20T09:27:17;12.85;;;10.63;;
14486;SDS011;7329;50.866;4.366;2022-11-20T09:29:22;12.60;;;10.18;;
14486;SDS011;7329;50.866;4.366;2022-11-20T09:31:25;14.17;;;10.93;;
14486;SDS011;7329;50.866;4.366;2022-11-20T09:33:34;12.82;;;10.98;;
14486;SDS011;7329;50.866;4.366;2022-11-20T09:35:37;13.23;;;10.55;;
14486;SDS011;7329;50.866;4.366;2022-11-20T09:37:39;12.00;;;10.67;;
14486;SDS011;7329;50.866;4.366;2022-11-20T09:39:42;13.60;;;10.98;;
14486;SDS011;7329;50.866;4.366;2022-11-20T09:41:52;14.57;;;10.77;;
14486;SDS011;7329;50.866;4.366;2022-11-20T09:44:06;13.80;;;10.52;;
14486;SDS011;7329;50.866;4.366;2022-11-20T09:46:21;13.88;;;10.43;;
14486;SDS011;7329;50.866;4.366;2022-11-20T09:48:42;14.35;;;10.98;;
14486;SDS011;7329;50.866;4.366;2022-11-20T09:51:03;12.60;;;9.38;;
14486;SDS011;7329;50.866;4.366;2022-11-20T09:53:17;12.98;;;10.30;;
14486;SDS011;7329;50.866;4.366;2022-11-20T09:55:27;12.77;;;11.18;;
14486;SDS011;7329;50.866;4.366;2022-11-20T09:57:33;12.95;;;10.30;;
14486;SDS011;7329;50.866;4.366;2022-11-20T09:59:38;12.93;;;10.15;;
14486;SDS011;7329;50.866;4.366;2022-11-20T10:01:43;13.95;;;10.63;;
14486;SDS011;7329;50.866;4.366;2022-11-20T10:03:50;12.25;;;9.75;;
14486;SDS011;7329;50.866;4.366;2022-11-20T10:05:57;12.05;;;10.10;;
14486;SDS011;7329;50.866;4.366;2022-11-20T10:08:07;13.13;;;10.23;;
14486;SDS011;7329;50.866;4.366;2022-11-20T10:10:19;13.23;;;10.65;;
14486;SDS011;7329;50.866;4.366;2022-11-20T10:12:32;13.90;;;10.35;;
14486;SDS011;7329;50.866;4.366;2022-11-20T10:14:50;12.07;;;10.00;;
14486;SDS011;7329;50.866;4.366;2022-11-20T10:17:11;12.50;;;10.45;;
14486;SDS011;7329;50.866;4.366;2022-11-20T10:19:24;13.30;;;10.63;;
14486;SDS011;7329;50.866;4.366;2022-11-20T10:21:40;11.90;;;10.00;;
14486;SDS011;7329;50.866;4.366;2022-11-20T10:24:00;11.65;;;9.20;;
14486;SDS011;7329;50.866;4.366;2022-11-20T10:26:21;12.65;;;10.27;;
14486;SDS011;7329;50.866;4.366;2022-11-20T10:28:30;11.82;;;9.93;;
14486;SDS011;7329;50.866;4.366;2022-11-20T10:30:43;11.35;;;9.27;;
14486;SDS011;7329;50.866;4.366;2022-11-20T10:32:50;11.00;;;9.18;;
14486;SDS011;7329;50.866;4.366;2022-11-20T10:34:57;14.05;;;10.38;;
14486;SDS011;7329;50.866;4.366;2022-11-20T10:37:02;12.18;;;9.85;;
14486;SDS011;7329;50.866;4.366;2022-11-20T10:39:14;12.63;;;10.18;;
14486;SDS011;7329;50.866;4.366;2022-11-20T10:41:34;12.02;;;10.05;;
14486;SDS011;7329;50.866;4.366;2022-11-20T10:43:42;11.38;;;9.57;;
14486;SDS011;7329;50.866;4.366;2022-11-20T10:45:48;11.38;;;9.30;;
14486;SDS011;7329;50.866;4.366;2022-11-20T10:48:01;10.95;;;9.25;;
14486;SDS011;7329;50.866;4.366;2022-11-20T10:50:14;10.85;;;9.43;;
14486;SDS011;7329;50.866;4.366;2022-11-20T10:52:21;11.25;;;9.27;;
14486;SDS011;7329;50.866;4.366;2022-11-20T10:54:35;12.43;;;9.40;;
14486;SDS011;7329;50.866;4.366;2022-11-20T10:56:47;11.93;;;9.40;;
14486;SDS011;7329;50.866;4.366;2022-11-20T10:58:57;10.30;;;8.68;;
14486;SDS011;7329;50.866;4.366;2022-11-20T11:01:13;12.75;;;9.38;;
14486;SDS011;7329;50.866;4.366;2022-11-20T11:03:22;11.82;;;9.63;;
14486;SDS011;7329;50.866;4.366;2022-11-20T11:05:33;10.80;;;9.15;;
14486;SDS011;7329;50.866;4.366;2022-11-20T11:07:39;11.00;;;9.10;;
14486;SDS011;7329;50.866;4.366;2022-11-20T11:09:43;11.75;;;8.85;;
14486;SDS011;7329;50.866;4.366;2022-11-20T11:11:50;11.23;;;9.20;;
14486;SDS011;7329;50.866;4.366;2022-11-20T11:13:52;11.25;;;8.32;;
14486;SDS011;7329;50.866;4.366;2022-11-20T11:15:55;11.32;;;9.18;;
14486;SDS011;7329;50.866;4.366;2022-11-20T11:17:57;10.63;;;8.88;;
14486;SDS011;7329;50.866;4.366;2022-11-20T11:20:02;11.77;;;9.05;;
14486;SDS011;7329;50.866;4.366;2022-11-20T11:22:10;10.50;;;8.50;;
14486;SDS011;7329;50.866;4.366;2022-11-20T11:24:20;11.65;;;8.93;;
14486;SDS011;7329;50.866;4.366;2022-11-20T11:26:24;11.05;;;8.70;;
14486;SDS011;7329;50.866;4.366;2022-11-20T11:28:26;9.80;;;8.30;;
14486;SDS011;7329;50.866;4.366;2022-11-20T11:30:29;10.98;;;8.95;;
14486;SDS011;7329;50.866;4.366;2022-11-20T11:32:43;10.82;;;8.70;;
14486;SDS011;7329;50.866;4.366;2022-11-20T11:34:58;10.48;;;8.65;;
14486;SDS011;7329;50.866;4.366;2022-11-20T11:37:03;8.98;;;7.70;;
14486;SDS011;7329;50.866;4.366;2022-11-20T11:39:10;9.98;;;7.95;;
14486;SDS011;7329;50.866;4.366;2022-11-20T11:41:16;10.52;;;8.23;;
14486;SDS011;7329;50.866;4.366;2022-11-20T11:43:22;10.63;;;8.43;;
14486;SDS011;7329;50.866;4.366;2022-11-20T11:45:50;10.45;;;8.05;;
14486;SDS011;7329;50.866;4.366;2022-11-20T11:47:55;10.27;;;7.68;;
14486;SDS011;7329;50.866;4.366;2022-11-20T11:52:22;11.02;;;8.30;;
14486;SDS011;7329;50.866;4.366;2022-11-20T11:54:28;10.18;;;8.15;;
14486;SDS011;7329;50.866;4.366;2022-11-20T11:56:34;9.80;;;7.43;;
14486;SDS011;7329;50.866;4.366;2022-11-20T11:58:41;9.60;;;7.85;;
14486;SDS011;7329;50.866;4.366;2022-11-20T12:00:51;8.73;;;7.30;;
14486;SDS011;7329;50.866;4.366;2022-11-20T12:03:00;11.30;;;8.32;;
14486;SDS011;7329;50.866;4.366;2022-11-20T12:05:16;9.60;;;7.80;;
14486;SDS011;7329;50.866;4.366;2022-11-20T12:07:26;10.23;;;7.45;;
14486;SDS011;7329;50.866;4.366;2022-11-20T12:09:34;10.10;;;7.30;;
14486;SDS011;7329;50.866;4.366;2022-11-20T12:11:43;9.75;;;7.53;;
14486;SDS011;7329;50.866;4.366;2022-11-20T12:13:52;10.45;;;8.13;;
14486;SDS011;7329;50.866;4.366;2022-11-20T12:15:57;10.57;;;7.80;;
14486;SDS011;7329;50.866;4.366;2022-11-20T12:18:00;9.80;;;7.78;;
14486;SDS011;7329;50.866;4.366;2022-11-20T12:20:05;9.70;;;7.55;;
14486;SDS011;7329;50.866;4.366;2022-11-20T12:22:16;10.98;;;7.68;;
14486;SDS011;7329;50.866;4.366;2022-11-20T12:27:00;9.30;;;6.93;;
14486;SDS011;7329;50.866;4.366;2022-11-20T12:29:15;8.57;;;7.07;;